sensor_id;sensor_type;location;lat;lon;timestamp;P1;durP1;ratioP1;P2;durP2;ratioP2
34212;SDS011;20477;51.390;8.102;2022-08-05T00:00:47;12.25;;;6.50;;
34212;SDS011;20477;51.390;8.102;2022-08-05T00:03:15;13.05;;;6.03;;
34212;SDS011;20477;51.390;8.102;2022-08-05T00:05:42;12.02;;;5.88;;
34212;SDS011;20477;51.390;8.102;2022-08-05T00:08:29;13.07;;;5.50;;
34212;SDS011;20477;51.390;8.102;2022-08-05T00:11:02;15.00;;;5.95;;
34212;SDS011;20477;51.390;8.102;2022-08-05T00:13:45;13.13;;;5.53;;
34212;SDS011;20477;51.390;8.102;2022-08-05T00:16:18;13.10;;;5.55;;
34212;SDS011;20477;51.390;8.102;2022-08-05T00:19:01;17.23;;;5.65;;
34212;SDS011;20477;51.390;8.102;2022-08-05T00:21:29;15.75;;;6.35;;
34212;SDS011;20477;51.390;8.102;2022-08-05T00:24:01;20.80;;;7.70;;
34212;SDS011;20477;51.390;8.102;2022-08-05T00:26:36;21.85;;;7.55;;
34212;SDS011;20477;51.390;8.102;2022-08-05T00:29:16;15.82;;;7.65;;
34212;SDS011;20477;51.390;8.102;2022-08-05T00:31:43;32.95;;;7.40;;
34212;SDS011;20477;51.390;8.102;2022-08-05T00:34:30;19.58;;;8.10;;
34212;SDS011;20477;51.390;8.102;2022-08-05T00:37:17;14.90;;;7.68;;
34212;SDS011;20477;51.390;8.102;2022-08-05T00:39:48;14.98;;;7.20;;
34212;SDS011;20477;51.390;8.102;2022-08-05T00:42:35;13.35;;;7.18;;
34212;SDS011;20477;51.390;8.102;2022-08-05T00:45:03;13.57;;;8.23;;
34212;SDS011;20477;51.390;8.102;2022-08-05T00:47:36;12.80;;;8.40;;
34212;SDS011;20477;51.390;8.102;2022-08-05T00:50:22;14.52;;;8.82;;
34212;SDS011;20477;51.390;8.102;2022-08-05T00:52:51;20.08;;;9.27;;
34212;SDS011;20477;51.390;8.102;2022-08-05T00:55:20;15.20;;;9.02;;
34212;SDS011;20477;51.390;8.102;2022-08-05T00:57:47;15.48;;;9.10;;
34212;SDS011;20477;51.390;8.102;2022-08-05T01:00:24;18.15;;;9.30;;
34212;SDS011;20477;51.390;8.102;2022-08-05T01:02:54;15.95;;;9.18;;
34212;SDS011;20477;51.390;8.102;2022-08-05T01:05:22;19.50;;;9.40;;
34212;SDS011;20477;51.390;8.102;2022-08-05T01:07:58;17.10;;;8.68;;
34212;SDS011;20477;51.390;8.102;2022-08-05T01:10:48;15.48;;;9.48;;
34212;SDS011;20477;51.390;8.102;2022-08-05T01:13:31;26.40;;;10.50;;
34212;SDS011;20477;51.390;8.102;2022-08-05T01:18:57;24.40;;;12.25;;
34212;SDS011;20477;51.390;8.102;2022-08-05T01:24:12;16.25;;;12.82;;
34212;SDS011;20477;51.390;8.102;2022-08-05T01:27:09;26.77;;;13.82;;
34212;SDS011;20477;51.390;8.102;2022-08-05T01:29:48;17.50;;;13.13;;
34212;SDS011;20477;51.390;8.102;2022-08-05T01:32:21;15.63;;;12.25;;
34212;SDS011;20477;51.390;8.102;2022-08-05T01:40:10;19.05;;;12.52;;
34212;SDS011;20477;51.390;8.102;2022-08-05T01:42:38;15.07;;;12.10;;
34212;SDS011;20477;51.390;8.102;2022-08-05T01:45:09;20.08;;;11.98;;
34212;SDS011;20477;51.390;8.102;2022-08-05T01:47:41;20.70;;;11.32;;
34212;SDS011;20477;51.390;8.102;2022-08-05T01:53:16;16.48;;;12.35;;
34212;SDS011;20477;51.390;8.102;2022-08-05T01:56:06;19.45;;;12.13;;
34212;SDS011;20477;51.390;8.102;2022-08-05T01:58:34;21.70;;;12.02;;
34212;SDS011;20477;51.390;8.102;2022-08-05T02:01:10;19.15;;;12.32;;
34212;SDS011;20477;51.390;8.102;2022-08-05T02:03:43;21.08;;;12.15;;
34212;SDS011;20477;51.390;8.102;2022-08-05T02:06:10;18.65;;;12.73;;
34212;SDS011;20477;51.390;8.102;2022-08-05T02:08:58;17.83;;;12.75;;
34212;SDS011;20477;51.390;8.102;2022-08-05T02:11:26;20.23;;;12.30;;
34212;SDS011;20477;51.390;8.102;2022-08-05T02:14:03;22.60;;;12.00;;
34212;SDS011;20477;51.390;8.102;2022-08-05T02:19:12;19.80;;;13.68;;
34212;SDS011;20477;51.390;8.102;2022-08-05T02:21:41;17.23;;;13.68;;
34212;SDS011;20477;51.390;8.102;2022-08-05T02:24:16;20.92;;;13.43;;
34212;SDS011;20477;51.390;8.102;2022-08-05T02:26:49;19.13;;;13.57;;
34212;SDS011;20477;51.390;8.102;2022-08-05T02:29:20;20.08;;;14.55;;
34212;SDS011;20477;51.390;8.102;2022-08-05T02:32:09;23.02;;;14.55;;
34212;SDS011;20477;51.390;8.102;2022-08-05T02:34:45;23.27;;;15.48;;
34212;SDS011;20477;51.390;8.102;2022-08-05T02:37:20;22.40;;;14.75;;
34212;SDS011;20477;51.390;8.102;2022-08-05T02:39:48;23.40;;;15.45;;
34212;SDS011;20477;51.390;8.102;2022-08-05T02:42:17;23.15;;;15.15;;
34212;SDS011;20477;51.390;8.102;2022-08-05T02:44:55;26.33;;;16.23;;
34212;SDS011;20477;51.390;8.102;2022-08-05T02:47:24;20.85;;;16.48;;
34212;SDS011;20477;51.390;8.102;2022-08-05T02:50:11;26.50;;;15.98;;
34212;SDS011;20477;51.390;8.102;2022-08-05T02:52:43;24.05;;;15.90;;
34212;SDS011;20477;51.390;8.102;2022-08-05T02:55:11;25.85;;;15.95;;
34212;SDS011;20477;51.390;8.102;2022-08-05T02:57:38;26.88;;;17.52;;
34212;SDS011;20477;51.390;8.102;2022-08-05T03:00:25;27.58;;;16.88;;
34212;SDS011;20477;51.390;8.102;2022-08-05T03:02:53;29.92;;;17.77;;
34212;SDS011;20477;51.390;8.102;2022-08-05T03:05:20;22.63;;;16.55;;
34212;SDS011;20477;51.390;8.102;2022-08-05T03:08:08;28.50;;;16.13;;
34212;SDS011;20477;51.390;8.102;2022-08-05T03:10:36;23.17;;;15.73;;
34212;SDS011;20477;51.390;8.102;2022-08-05T03:13:10;28.85;;;15.35;;
34212;SDS011;20477;51.390;8.102;2022-08-05T03:15:43;24.80;;;15.50;;
34212;SDS011;20477;51.390;8.102;2022-08-05T03:18:11;20.85;;;14.38;;
34212;SDS011;20477;51.390;8.102;2022-08-05T03:20:42;25.30;;;13.90;;
34212;SDS011;20477;51.390;8.102;2022-08-05T03:23:14;25.30;;;13.65;;
34212;SDS011;20477;51.390;8.102;2022-08-05T03:25:41;25.38;;;12.82;;
34212;SDS011;20477;51.390;8.102;2022-08-05T03:28:29;21.08;;;12.55;;
34212;SDS011;20477;51.390;8.102;2022-08-05T03:30:56;18.23;;;11.82;;
34212;SDS011;20477;51.390;8.102;2022-08-05T03:33:26;20.52;;;12.27;;
34212;SDS011;20477;51.390;8.102;2022-08-05T03:36:13;20.48;;;11.90;;
34212;SDS011;20477;51.390;8.102;2022-08-05T03:38:41;15.88;;;12.43;;
34212;SDS011;20477;51.390;8.102;2022-08-05T03:41:17;23.38;;;12.40;;
34212;SDS011;20477;51.390;8.102;2022-08-05T03:43:48;24.85;;;11.65;;
34212;SDS011;20477;51.390;8.102;2022-08-05T03:46:35;21.38;;;12.38;;
34212;SDS011;20477;51.390;8.102;2022-08-05T03:49:03;23.25;;;11.43;;
34212;SDS011;20477;51.390;8.102;2022-08-05T03:51:31;18.77;;;10.07;;
34212;SDS011;20477;51.390;8.102;2022-08-05T03:57:26;32.22;;;11.57;;
34212;SDS011;20477;51.390;8.102;2022-08-05T04:00:08;22.83;;;11.18;;
34212;SDS011;20477;51.390;8.102;2022-08-05T04:02:36;22.38;;;11.40;;
34212;SDS011;20477;51.390;8.102;2022-08-05T04:05:22;21.52;;;10.43;;
34212;SDS011;20477;51.390;8.102;2022-08-05T04:07:53;22.33;;;10.05;;
34212;SDS011;20477;51.390;8.102;2022-08-05T04:10:27;17.85;;;9.98;;
34212;SDS011;20477;51.390;8.102;2022-08-05T04:13:03;19.52;;;9.48;;
34212;SDS011;20477;51.390;8.102;2022-08-05T04:15:32;17.38;;;9.07;;
34212;SDS011;20477;51.390;8.102;2022-08-05T04:18:04;20.70;;;9.95;;
34212;SDS011;20477;51.390;8.102;2022-08-05T04:20:35;16.45;;;8.38;;
34212;SDS011;20477;51.390;8.102;2022-08-05T04:23:02;16.83;;;8.13;;
34212;SDS011;20477;51.390;8.102;2022-08-05T04:25:29;14.25;;;8.85;;
34212;SDS011;20477;51.390;8.102;2022-08-05T04:28:20;13.23;;;9.18;;
34212;SDS011;20477;51.390;8.102;2022-08-05T04:30:57;18.88;;;10.13;;
34212;SDS011;20477;51.390;8.102;2022-08-05T04:33:26;17.75;;;9.80;;
34212;SDS011;20477;51.390;8.102;2022-08-05T04:36:14;18.05;;;10.30;;
34212;SDS011;20477;51.390;8.102;2022-08-05T04:39:01;15.77;;;9.40;;
34212;SDS011;20477;51.390;8.102;2022-08-05T04:41:28;13.93;;;8.75;;
34212;SDS011;20477;51.390;8.102;2022-08-05T04:44:02;14.07;;;9.02;;
34212;SDS011;20477;51.390;8.102;2022-08-05T04:46:35;14.20;;;9.88;;
34212;SDS011;20477;51.390;8.102;2022-08-05T04:49:03;14.65;;;10.10;;
34212;SDS011;20477;51.390;8.102;2022-08-05T04:51:39;16.23;;;10.63;;
34212;SDS011;20477;51.390;8.102;2022-08-05T04:54:08;16.05;;;9.75;;
34212;SDS011;20477;51.390;8.102;2022-08-05T04:56:37;17.10;;;10.02;;
34212;SDS011;20477;51.390;8.102;2022-08-05T04:59:05;18.50;;;9.90;;
34212;SDS011;20477;51.390;8.102;2022-08-05T05:01:52;14.60;;;10.07;;
34212;SDS011;20477;51.390;8.102;2022-08-05T05:04:39;15.15;;;9.93;;
34212;SDS011;20477;51.390;8.102;2022-08-05T05:07:15;13.85;;;9.13;;
34212;SDS011;20477;51.390;8.102;2022-08-05T05:09:43;11.65;;;9.05;;
34212;SDS011;20477;51.390;8.102;2022-08-05T05:12:10;13.13;;;9.07;;
34212;SDS011;20477;51.390;8.102;2022-08-05T05:14:38;13.88;;;8.32;;
34212;SDS011;20477;51.390;8.102;2022-08-05T05:17:15;12.88;;;8.98;;
34212;SDS011;20477;51.390;8.102;2022-08-05T05:22:15;11.20;;;8.30;;
34212;SDS011;20477;51.390;8.102;2022-08-05T05:24:51;14.43;;;7.75;;
34212;SDS011;20477;51.390;8.102;2022-08-05T05:27:28;8.82;;;7.90;;
34212;SDS011;20477;51.390;8.102;2022-08-05T05:30:07;8.70;;;7.57;;
34212;SDS011;20477;51.390;8.102;2022-08-05T05:32:54;12.10;;;6.70;;
34212;SDS011;20477;51.390;8.102;2022-08-05T05:35:26;9.23;;;7.38;;
34212;SDS011;20477;51.390;8.102;2022-08-05T05:38:00;10.75;;;7.57;;
34212;SDS011;20477;51.390;8.102;2022-08-05T05:40:31;11.95;;;8.00;;
34212;SDS011;20477;51.390;8.102;2022-08-05T05:42:59;12.98;;;7.95;;
34212;SDS011;20477;51.390;8.102;2022-08-05T05:45:27;13.68;;;7.47;;
34212;SDS011;20477;51.390;8.102;2022-08-05T05:47:56;11.07;;;7.85;;
34212;SDS011;20477;51.390;8.102;2022-08-05T05:50:33;10.10;;;7.20;;
34212;SDS011;20477;51.390;8.102;2022-08-05T05:53:09;13.95;;;7.78;;
34212;SDS011;20477;51.390;8.102;2022-08-05T05:55:48;12.63;;;7.18;;
34212;SDS011;20477;51.390;8.102;2022-08-05T05:58:26;9.70;;;7.53;;
34212;SDS011;20477;51.390;8.102;2022-08-05T06:00:57;10.30;;;7.47;;
34212;SDS011;20477;51.390;8.102;2022-08-05T06:03:39;9.40;;;7.47;;
34212;SDS011;20477;51.390;8.102;2022-08-05T06:06:26;8.75;;;7.75;;
34212;SDS011;20477;51.390;8.102;2022-08-05T06:08:59;10.85;;;7.40;;
34212;SDS011;20477;51.390;8.102;2022-08-05T06:11:29;9.07;;;6.30;;
34212;SDS011;20477;51.390;8.102;2022-08-05T06:13:57;10.60;;;6.85;;
34212;SDS011;20477;51.390;8.102;2022-08-05T06:16:25;9.98;;;7.70;;
34212;SDS011;20477;51.390;8.102;2022-08-05T06:18:58;8.60;;;7.70;;
34212;SDS011;20477;51.390;8.102;2022-08-05T06:21:27;8.73;;;7.82;;
34212;SDS011;20477;51.390;8.102;2022-08-05T06:24:06;8.50;;;7.05;;
34212;SDS011;20477;51.390;8.102;2022-08-05T06:26:40;8.93;;;7.40;;
34212;SDS011;20477;51.390;8.102;2022-08-05T06:29:19;9.82;;;7.25;;
34212;SDS011;20477;51.390;8.102;2022-08-05T06:32:07;8.23;;;7.32;;
34212;SDS011;20477;51.390;8.102;2022-08-05T06:34:54;13.40;;;7.43;;
34212;SDS011;20477;51.390;8.102;2022-08-05T06:37:25;12.93;;;7.75;;
34212;SDS011;20477;51.390;8.102;2022-08-05T06:40:12;11.30;;;8.27;;
34212;SDS011;20477;51.390;8.102;2022-08-05T06:42:46;15.93;;;8.65;;
34212;SDS011;20477;51.390;8.102;2022-08-05T06:45:18;12.98;;;8.38;;
34212;SDS011;20477;51.390;8.102;2022-08-05T06:48:06;10.48;;;8.60;;
34212;SDS011;20477;51.390;8.102;2022-08-05T06:50:53;14.13;;;9.38;;
34212;SDS011;20477;51.390;8.102;2022-08-05T06:53:20;17.00;;;9.82;;
34212;SDS011;20477;51.390;8.102;2022-08-05T06:55:54;11.48;;;8.68;;
34212;SDS011;20477;51.390;8.102;2022-08-05T06:58:24;14.88;;;8.52;;
34212;SDS011;20477;51.390;8.102;2022-08-05T07:01:01;14.52;;;8.23;;
34212;SDS011;20477;51.390;8.102;2022-08-05T07:03:30;9.90;;;8.23;;
34212;SDS011;20477;51.390;8.102;2022-08-05T07:05:58;11.93;;;8.35;;
34212;SDS011;20477;51.390;8.102;2022-08-05T07:08:40;12.25;;;8.05;;
34212;SDS011;20477;51.390;8.102;2022-08-05T07:11:13;13.63;;;8.20;;
34212;SDS011;20477;51.390;8.102;2022-08-05T07:13:41;11.65;;;8.35;;
34212;SDS011;20477;51.390;8.102;2022-08-05T07:16:27;15.32;;;8.65;;
34212;SDS011;20477;51.390;8.102;2022-08-05T07:19:33;10.32;;;8.20;;
34212;SDS011;20477;51.390;8.102;2022-08-05T07:22:20;11.75;;;8.95;;
34212;SDS011;20477;51.390;8.102;2022-08-05T07:24:55;10.35;;;9.23;;
34212;SDS011;20477;51.390;8.102;2022-08-05T07:27:23;11.43;;;9.82;;
34212;SDS011;20477;51.390;8.102;2022-08-05T07:30:10;15.75;;;9.73;;
34212;SDS011;20477;51.390;8.102;2022-08-05T07:32:55;12.25;;;10.15;;
34212;SDS011;20477;51.390;8.102;2022-08-05T07:35:22;11.27;;;9.95;;
34212;SDS011;20477;51.390;8.102;2022-08-05T07:38:09;11.50;;;8.93;;
34212;SDS011;20477;51.390;8.102;2022-08-05T07:40:56;30.50;;;11.02;;
34212;SDS011;20477;51.390;8.102;2022-08-05T07:43:29;13.73;;;12.27;;
34212;SDS011;20477;51.390;8.102;2022-08-05T07:46:00;20.23;;;12.80;;
34212;SDS011;20477;51.390;8.102;2022-08-05T07:48:27;17.48;;;14.82;;
34212;SDS011;20477;51.390;8.102;2022-08-05T07:51:14;19.15;;;16.85;;
34212;SDS011;20477;51.390;8.102;2022-08-05T07:54:01;20.35;;;13.13;;
34212;SDS011;20477;51.390;8.102;2022-08-05T07:56:28;13.07;;;10.82;;
34212;SDS011;20477;51.390;8.102;2022-08-05T07:59:16;23.63;;;15.48;;
34212;SDS011;20477;51.390;8.102;2022-08-05T08:01:48;22.83;;;17.50;;
34212;SDS011;20477;51.390;8.102;2022-08-05T08:04:22;23.48;;;18.35;;
34212;SDS011;20477;51.390;8.102;2022-08-05T08:07:03;19.85;;;17.15;;
34212;SDS011;20477;51.390;8.102;2022-08-05T08:09:33;21.55;;;18.20;;
34212;SDS011;20477;51.390;8.102;2022-08-05T08:12:02;21.23;;;17.20;;
34212;SDS011;20477;51.390;8.102;2022-08-05T08:14:45;23.80;;;19.17;;
34212;SDS011;20477;51.390;8.102;2022-08-05T08:17:12;23.05;;;17.40;;
34212;SDS011;20477;51.390;8.102;2022-08-05T08:19:46;26.17;;;18.05;;
34212;SDS011;20477;51.390;8.102;2022-08-05T08:22:34;30.90;;;20.35;;
34212;SDS011;20477;51.390;8.102;2022-08-05T08:25:01;34.63;;;22.15;;
34212;SDS011;20477;51.390;8.102;2022-08-05T08:27:41;30.17;;;21.38;;
34212;SDS011;20477;51.390;8.102;2022-08-05T08:30:12;33.83;;;23.40;;
34212;SDS011;20477;51.390;8.102;2022-08-05T08:33:05;30.92;;;22.17;;
34212;SDS011;20477;51.390;8.102;2022-08-05T08:35:39;30.05;;;23.02;;
34212;SDS011;20477;51.390;8.102;2022-08-05T08:38:19;39.38;;;22.63;;
34212;SDS011;20477;51.390;8.102;2022-08-05T08:41:06;37.88;;;23.90;;
34212;SDS011;20477;51.390;8.102;2022-08-05T08:43:34;33.55;;;24.52;;
34212;SDS011;20477;51.390;8.102;2022-08-05T08:46:22;35.50;;;22.67;;
34212;SDS011;20477;51.390;8.102;2022-08-05T08:48:51;32.75;;;22.20;;
34212;SDS011;20477;51.390;8.102;2022-08-05T08:51:40;23.95;;;20.13;;
34212;SDS011;20477;51.390;8.102;2022-08-05T08:54:29;28.70;;;20.33;;
34212;SDS011;20477;51.390;8.102;2022-08-05T08:56:57;29.77;;;21.25;;
34212;SDS011;20477;51.390;8.102;2022-08-05T08:59:24;30.92;;;21.83;;
34212;SDS011;20477;51.390;8.102;2022-08-05T09:01:59;27.55;;;21.55;;
34212;SDS011;20477;51.390;8.102;2022-08-05T09:04:27;32.40;;;24.23;;
34212;SDS011;20477;51.390;8.102;2022-08-05T09:06:56;27.58;;;22.88;;
34212;SDS011;20477;51.390;8.102;2022-08-05T09:09:24;31.83;;;22.63;;
34212;SDS011;20477;51.390;8.102;2022-08-05T09:12:02;29.42;;;23.40;;
34212;SDS011;20477;51.390;8.102;2022-08-05T09:14:46;29.15;;;22.65;;
34212;SDS011;20477;51.390;8.102;2022-08-05T09:17:24;29.17;;;22.05;;
34212;SDS011;20477;51.390;8.102;2022-08-05T09:20:08;27.70;;;20.13;;
34212;SDS011;20477;51.390;8.102;2022-08-05T09:25:46;22.42;;;17.70;;
34212;SDS011;20477;51.390;8.102;2022-08-05T09:28:29;22.27;;;16.90;;
34212;SDS011;20477;51.390;8.102;2022-08-05T09:33:57;16.67;;;14.20;;
34212;SDS011;20477;51.390;8.102;2022-08-05T09:36:39;19.33;;;13.10;;
34212;SDS011;20477;51.390;8.102;2022-08-05T09:39:20;19.52;;;13.40;;
34212;SDS011;20477;51.390;8.102;2022-08-05T09:42:09;14.70;;;12.05;;
34212;SDS011;20477;51.390;8.102;2022-08-05T09:44:49;14.43;;;11.85;;
34212;SDS011;20477;51.390;8.102;2022-08-05T09:47:23;15.13;;;12.27;;
34212;SDS011;20477;51.390;8.102;2022-08-05T09:50:11;15.57;;;11.73;;
34212;SDS011;20477;51.390;8.102;2022-08-05T09:52:43;13.82;;;11.75;;
34212;SDS011;20477;51.390;8.102;2022-08-05T09:55:11;13.70;;;10.65;;
34212;SDS011;20477;51.390;8.102;2022-08-05T09:57:58;11.10;;;10.00;;
34212;SDS011;20477;51.390;8.102;2022-08-05T10:00:26;9.70;;;8.70;;
34212;SDS011;20477;51.390;8.102;2022-08-05T10:02:56;8.80;;;8.00;;
34212;SDS011;20477;51.390;8.102;2022-08-05T10:05:24;12.02;;;8.68;;
34212;SDS011;20477;51.390;8.102;2022-08-05T10:07:54;10.73;;;9.60;;
34212;SDS011;20477;51.390;8.102;2022-08-05T10:13:09;13.82;;;12.00;;
34212;SDS011;20477;51.390;8.102;2022-08-05T10:15:40;12.68;;;11.38;;
34212;SDS011;20477;51.390;8.102;2022-08-05T10:20:41;14.38;;;10.98;;
34212;SDS011;20477;51.390;8.102;2022-08-05T10:23:14;10.38;;;9.38;;
34212;SDS011;20477;51.390;8.102;2022-08-05T10:26:06;10.13;;;9.25;;
34212;SDS011;20477;51.390;8.102;2022-08-05T10:28:40;9.55;;;8.70;;
34212;SDS011;20477;51.390;8.102;2022-08-05T10:31:10;9.43;;;8.38;;
34212;SDS011;20477;51.390;8.102;2022-08-05T10:33:58;8.77;;;7.97;;
34212;SDS011;20477;51.390;8.102;2022-08-05T10:36:26;10.90;;;8.60;;
34212;SDS011;20477;51.390;8.102;2022-08-05T10:38:55;6.13;;;5.50;;
34212;SDS011;20477;51.390;8.102;2022-08-05T10:44:26;8.48;;;7.63;;
34212;SDS011;20477;51.390;8.102;2022-08-05T10:46:55;16.20;;;9.70;;
34212;SDS011;20477;51.390;8.102;2022-08-05T10:49:23;13.27;;;9.02;;
34212;SDS011;20477;51.390;8.102;2022-08-05T10:51:53;12.32;;;7.38;;
34212;SDS011;20477;51.390;8.102;2022-08-05T10:54:44;10.48;;;7.28;;
34212;SDS011;20477;51.390;8.102;2022-08-05T10:57:24;7.55;;;6.07;;
34212;SDS011;20477;51.390;8.102;2022-08-05T11:03:49;6.65;;;5.80;;
34212;SDS011;20477;51.390;8.102;2022-08-05T11:07:02;8.32;;;5.82;;
34212;SDS011;20477;51.390;8.102;2022-08-05T11:09:27;8.00;;;4.78;;
34212;SDS011;20477;51.390;8.102;2022-08-05T11:15:07;7.25;;;4.57;;
34212;SDS011;20477;51.390;8.102;2022-08-05T11:17:47;8.15;;;3.80;;
34212;SDS011;20477;51.390;8.102;2022-08-05T11:28:58;7.57;;;3.30;;
34212;SDS011;20477;51.390;8.102;2022-08-05T11:31:40;7.88;;;3.92;;
34212;SDS011;20477;51.390;8.102;2022-08-05T11:34:33;8.93;;;3.72;;
34212;SDS011;20477;51.390;8.102;2022-08-05T11:37:03;11.23;;;3.60;;
34212;SDS011;20477;51.390;8.102;2022-08-05T11:39:50;9.35;;;3.25;;
34212;SDS011;20477;51.390;8.102;2022-08-05T11:42:28;9.32;;;3.05;;
34212;SDS011;20477;51.390;8.102;2022-08-05T11:45:06;7.10;;;2.80;;
34212;SDS011;20477;51.390;8.102;2022-08-05T11:47:53;9.63;;;3.05;;
34212;SDS011;20477;51.390;8.102;2022-08-05T11:50:21;5.25;;;2.92;;
34212;SDS011;20477;51.390;8.102;2022-08-05T11:52:48;5.55;;;3.17;;
34212;SDS011;20477;51.390;8.102;2022-08-05T11:55:19;6.20;;;3.00;;
34212;SDS011;20477;51.390;8.102;2022-08-05T11:58:00;5.72;;;3.65;;
34212;SDS011;20477;51.390;8.102;2022-08-05T12:00:37;8.13;;;3.70;;
34212;SDS011;20477;51.390;8.102;2022-08-05T12:03:18;10.07;;;3.40;;
34212;SDS011;20477;51.390;8.102;2022-08-05T12:06:00;11.68;;;3.78;;
34212;SDS011;20477;51.390;8.102;2022-08-05T12:08:39;8.13;;;4.22;;
34212;SDS011;20477;51.390;8.102;2022-08-05T12:11:17;9.25;;;4.53;;
34212;SDS011;20477;51.390;8.102;2022-08-05T12:14:07;8.63;;;4.20;;
34212;SDS011;20477;51.390;8.102;2022-08-05T12:16:36;12.10;;;4.63;;
34212;SDS011;20477;51.390;8.102;2022-08-05T12:19:05;15.15;;;6.57;;
34212;SDS011;20477;51.390;8.102;2022-08-05T12:21:34;11.05;;;5.32;;
34212;SDS011;20477;51.390;8.102;2022-08-05T12:24:08;10.05;;;4.72;;
34212;SDS011;20477;51.390;8.102;2022-08-05T12:26:44;10.30;;;5.28;;
34212;SDS011;20477;51.390;8.102;2022-08-05T12:29:19;12.40;;;4.97;;
34212;SDS011;20477;51.390;8.102;2022-08-05T12:34:19;10.63;;;4.65;;
34212;SDS011;20477;51.390;8.102;2022-08-05T12:36:50;8.18;;;4.88;;
34212;SDS011;20477;51.390;8.102;2022-08-05T12:39:19;7.38;;;4.43;;
34212;SDS011;20477;51.390;8.102;2022-08-05T12:41:49;7.68;;;5.28;;
34212;SDS011;20477;51.390;8.102;2022-08-05T12:44:23;11.55;;;5.18;;
34212;SDS011;20477;51.390;8.102;2022-08-05T12:46:59;11.35;;;5.15;;
34212;SDS011;20477;51.390;8.102;2022-08-05T12:49:37;8.30;;;5.35;;
34212;SDS011;20477;51.390;8.102;2022-08-05T12:52:25;8.35;;;5.13;;
34212;SDS011;20477;51.390;8.102;2022-08-05T12:55:23;10.68;;;5.65;;
34212;SDS011;20477;51.390;8.102;2022-08-05T12:57:54;11.20;;;5.38;;
34212;SDS011;20477;51.390;8.102;2022-08-05T13:00:43;10.63;;;5.18;;
34212;SDS011;20477;51.390;8.102;2022-08-05T13:03:33;17.02;;;5.50;;
34212;SDS011;20477;51.390;8.102;2022-08-05T13:06:11;10.77;;;5.25;;
34212;SDS011;20477;51.390;8.102;2022-08-05T13:08:41;9.32;;;4.93;;
34212;SDS011;20477;51.390;8.102;2022-08-05T13:11:18;10.45;;;4.35;;
34212;SDS011;20477;51.390;8.102;2022-08-05T13:14:14;5.75;;;3.85;;
34212;SDS011;20477;51.390;8.102;2022-08-05T13:16:51;10.07;;;4.53;;
34212;SDS011;20477;51.390;8.102;2022-08-05T13:19:25;7.95;;;4.07;;
34212;SDS011;20477;51.390;8.102;2022-08-05T13:22:13;7.30;;;3.38;;
34212;SDS011;20477;51.390;8.102;2022-08-05T13:24:54;9.25;;;3.63;;
34212;SDS011;20477;51.390;8.102;2022-08-05T13:27:31;8.52;;;3.80;;
34212;SDS011;20477;51.390;8.102;2022-08-05T13:30:08;4.80;;;3.17;;
34212;SDS011;20477;51.390;8.102;2022-08-05T13:32:56;8.57;;;3.53;;
34212;SDS011;20477;51.390;8.102;2022-08-05T13:35:26;6.00;;;2.78;;
34212;SDS011;20477;51.390;8.102;2022-08-05T13:38:16;7.82;;;3.22;;
34212;SDS011;20477;51.390;8.102;2022-08-05T13:40:57;7.88;;;2.78;;
34212;SDS011;20477;51.390;8.102;2022-08-05T13:43:25;5.35;;;2.30;;
34212;SDS011;20477;51.390;8.102;2022-08-05T13:46:12;12.25;;;4.38;;
34212;SDS011;20477;51.390;8.102;2022-08-05T13:48:40;5.63;;;2.10;;
34212;SDS011;20477;51.390;8.102;2022-08-05T13:51:25;6.38;;;2.30;;
34212;SDS011;20477;51.390;8.102;2022-08-05T13:54:09;12.43;;;2.83;;
34212;SDS011;20477;51.390;8.102;2022-08-05T13:56:38;5.65;;;2.28;;
34212;SDS011;20477;51.390;8.102;2022-08-05T13:59:17;9.82;;;2.95;;
34212;SDS011;20477;51.390;8.102;2022-08-05T14:01:49;5.95;;;2.47;;
34212;SDS011;20477;51.390;8.102;2022-08-05T14:04:25;7.15;;;2.75;;
34212;SDS011;20477;51.390;8.102;2022-08-05T14:07:17;9.10;;;2.35;;
34212;SDS011;20477;51.390;8.102;2022-08-05T14:10:13;7.63;;;3.15;;
34212;SDS011;20477;51.390;8.102;2022-08-05T14:12:53;8.65;;;2.70;;
34212;SDS011;20477;51.390;8.102;2022-08-05T14:15:22;6.78;;;2.53;;
34212;SDS011;20477;51.390;8.102;2022-08-05T14:18:10;8.88;;;3.05;;
34212;SDS011;20477;51.390;8.102;2022-08-05T14:20:48;10.10;;;3.20;;
34212;SDS011;20477;51.390;8.102;2022-08-05T14:23:20;7.05;;;2.70;;
34212;SDS011;20477;51.390;8.102;2022-08-05T14:25:55;5.25;;;2.50;;
34212;SDS011;20477;51.390;8.102;2022-08-05T14:28:24;7.32;;;2.47;;
34212;SDS011;20477;51.390;8.102;2022-08-05T14:30:54;5.10;;;2.60;;
34212;SDS011;20477;51.390;8.102;2022-08-05T14:33:21;4.35;;;1.88;;
34212;SDS011;20477;51.390;8.102;2022-08-05T14:35:49;6.82;;;3.03;;
34212;SDS011;20477;51.390;8.102;2022-08-05T14:38:19;7.32;;;2.38;;
34212;SDS011;20477;51.390;8.102;2022-08-05T14:40:58;4.57;;;1.88;;
34212;SDS011;20477;51.390;8.102;2022-08-05T14:43:25;7.63;;;2.25;;
34212;SDS011;20477;51.390;8.102;2022-08-05T14:46:12;6.90;;;2.03;;
34212;SDS011;20477;51.390;8.102;2022-08-05T14:48:39;6.50;;;2.80;;
34212;SDS011;20477;51.390;8.102;2022-08-05T14:51:07;6.70;;;2.35;;
34212;SDS011;20477;51.390;8.102;2022-08-05T14:53:40;5.93;;;2.33;;
34212;SDS011;20477;51.390;8.102;2022-08-05T14:56:10;3.85;;;2.58;;
34212;SDS011;20477;51.390;8.102;2022-08-05T14:58:38;6.93;;;3.38;;
34212;SDS011;20477;51.390;8.102;2022-08-05T15:01:18;5.53;;;2.70;;
34212;SDS011;20477;51.390;8.102;2022-08-05T15:04:06;7.80;;;2.47;;
34212;SDS011;20477;51.390;8.102;2022-08-05T15:06:46;10.75;;;2.65;;
34212;SDS011;20477;51.390;8.102;2022-08-05T15:09:18;11.40;;;2.75;;
34212;SDS011;20477;51.390;8.102;2022-08-05T15:12:09;4.38;;;2.47;;
34212;SDS011;20477;51.390;8.102;2022-08-05T15:14:42;5.03;;;2.40;;
34212;SDS011;20477;51.390;8.102;2022-08-05T15:17:16;4.13;;;2.35;;
34212;SDS011;20477;51.390;8.102;2022-08-05T15:20:07;6.25;;;3.03;;
34212;SDS011;20477;51.390;8.102;2022-08-05T15:22:44;4.65;;;2.67;;
34212;SDS011;20477;51.390;8.102;2022-08-05T15:25:17;7.40;;;2.40;;
34212;SDS011;20477;51.390;8.102;2022-08-05T15:28:05;7.70;;;2.25;;
34212;SDS011;20477;51.390;8.102;2022-08-05T15:30:33;8.32;;;2.55;;
34212;SDS011;20477;51.390;8.102;2022-08-05T15:33:03;9.45;;;2.75;;
34212;SDS011;20477;51.390;8.102;2022-08-05T15:35:30;5.32;;;2.40;;
34212;SDS011;20477;51.390;8.102;2022-08-05T15:38:01;8.70;;;2.17;;
34212;SDS011;20477;51.390;8.102;2022-08-05T15:40:48;9.40;;;3.00;;
34212;SDS011;20477;51.390;8.102;2022-08-05T15:43:35;7.38;;;2.80;;
34212;SDS011;20477;51.390;8.102;2022-08-05T15:46:12;9.00;;;2.80;;
34212;SDS011;20477;51.390;8.102;2022-08-05T15:48:39;7.88;;;3.10;;
34212;SDS011;20477;51.390;8.102;2022-08-05T15:51:23;7.35;;;2.72;;
34212;SDS011;20477;51.390;8.102;2022-08-05T15:54:14;7.28;;;2.53;;
34212;SDS011;20477;51.390;8.102;2022-08-05T15:56:41;7.97;;;2.72;;
34212;SDS011;20477;51.390;8.102;2022-08-05T15:59:08;5.25;;;2.35;;
34212;SDS011;20477;51.390;8.102;2022-08-05T16:01:47;3.08;;;1.90;;
34212;SDS011;20477;51.390;8.102;2022-08-05T16:04:18;3.67;;;1.98;;
34212;SDS011;20477;51.390;8.102;2022-08-05T16:06:51;7.15;;;2.15;;
34212;SDS011;20477;51.390;8.102;2022-08-05T16:09:23;6.38;;;2.17;;
34212;SDS011;20477;51.390;8.102;2022-08-05T16:11:51;10.38;;;2.33;;
34212;SDS011;20477;51.390;8.102;2022-08-05T16:14:19;7.10;;;2.45;;
34212;SDS011;20477;51.390;8.102;2022-08-05T16:16:47;3.97;;;1.95;;
34212;SDS011;20477;51.390;8.102;2022-08-05T16:19:14;5.78;;;1.60;;